Data for 07/15/2010

Time Sea-Level Adjusted Pressure Absolute Pressure Temperature Relative Humidity Dew Point   
(mb) (inHg) (mb) (inHg) (C) (F) (%) (C) (F)
00:05 1022 30.18 851 25.13 14.4 57.9 54 5.3 41.5
00:10 1022 30.18 851 25.13 14.3 57.7 55 5.3 41.6
00:15 1022 30.18 851 25.13 14.2 57.5 54 5.2 41.3
00:20 1022 30.18 851 25.13 14.2 57.6 54 5.1 41.2
00:25 1022 30.18 851 25.13 14.3 57.7 54 5.2 41.3
00:30 1022 30.18 851 25.13 14.4 57.8 55 5.4 41.7
00:35 1022 30.18 851 25.13 14.3 57.8 56 5.8 42.5
00:40 1022 30.18 851 25.13 13.8 56.9 59 5.9 42.6
00:45 1022 30.18 851 25.13 13.4 56.2 61 6.1 43
00:50 1022 30.18 852 25.16 12.8 55.1 64 6.1 43
00:55 1022 30.18 852 25.16 12.6 54.6 62 5.6 42.1
01:00 1022 30.18 852 25.16 13 55.4 58 5 41
01:05 1022 30.18 852 25.16 13.8 56.8 54 4.8 40.6
01:10 1022 30.18 852 25.16 14 57.1 56 5.5 41.8
01:15 1023 30.21 852 25.16 13.4 56.1 58 5.3 41.6
01:20 1023 30.21 852 25.16 13 55.5 58 5.1 41.2
01:25 1023 30.21 852 25.16 13.1 55.7 58 5.2 41.4
01:30 1023 30.21 852 25.16 13 55.5 58 5.1 41.2
01:35 1023 30.21 852 25.16 13 55.5 58 5 41
01:40 1023 30.21 852 25.16 13.1 55.6 58 5 41.1
01:45 1023 30.21 852 25.16 13.2 55.8 59 5.4 41.8
01:50 1023 30.21 852 25.16 12.5 54.6 63 5.6 42.1
01:55 1023 30.21 852 25.16 12.4 54.4 62 5.3 41.5
02:00 1023 30.21 852 25.16 12.5 54.6 62 5.4 41.8
02:05 1023 30.21 852 25.16 12.4 54.3 63 5.7 42.2
02:10 1023 30.21 852 25.16 12 53.5 66 5.9 42.7
02:15 1023 30.21 852 25.16 11.5 52.7 65 5.3 41.5
02:20 1023 30.21 852 25.16 11.5 52.7 67 5.6 42.1
02:25 1023 30.21 852 25.16 11.3 52.4 66 5.3 41.6
02:30 1023 30.21 852 25.16 11.5 52.7 65 5.2 41.4
02:35 1023 30.21 852 25.16 11.7 53 65 5.3 41.5
02:40 1023 30.21 852 25.16 11.5 52.7 67 5.5 41.9
02:45 1023 30.21 852 25.16 10.9 51.7 69 5.5 41.8
02:50 1023 30.21 852 25.16 10.9 51.6 68 5.2 41.4
02:55 1023 30.21 852 25.16 11 51.7 68 5.2 41.4
03:00 1023 30.21 852 25.16 11 51.7 68 5.4 41.7
03:05 1023 30.21 852 25.16 10.9 51.5 68 5.3 41.5
03:10 1023 30.21 852 25.16 11 51.8 67 5.2 41.3
03:15 1023 30.21 852 25.16 11.2 52.2 66 5.2 41.3
03:20 1023 30.21 852 25.16 11.4 52.4 66 5.3 41.5
03:25 1023 30.21 852 25.16 11.2 52.2 66 5.2 41.4
03:30 1023 30.21 852 25.16 11.2 52.1 68 5.5 41.9
03:35 1023 30.21 852 25.16 10.6 51.1 69 5.2 41.3
03:40 1023 30.21 852 25.16 10.8 51.5 67 5 40.9
03:45 1023 30.21 852 25.16 11 51.9 66 4.9 40.8
03:50 1023 30.21 852 25.16 11.2 52.2 64 4.6 40.3
03:55 1023 30.21 852 25.16 11.5 52.7 64 4.9 40.9
04:00 1023 30.21 852 25.16 11.3 52.4 64 4.7 40.5
04:05 1023 30.21 852 25.16 11.5 52.7 63 4.6 40.4
04:10 1023 30.21 852 25.16 11.4 52.6 62 4.5 40.1
04:15 1023 30.21 852 25.16 11.5 52.7 63 4.8 40.6
04:20 1023 30.21 852 25.16 11.1 52 64 4.7 40.4
04:25 1023 30.21 852 25.16 11.3 52.4 63 4.5 40.1
04:30 1023 30.21 852 25.16 11.6 52.8 62 4.5 40.2
04:35 1023 30.21 853 25.19 11.8 53.2 61 4.5 40.2
04:40 1023 30.21 853 25.19 12 53.5 60 4.6 40.2
04:45 1023 30.21 853 25.19 11.7 53.1 62 4.7 40.5
04:50 1023 30.21 853 25.19 11.5 52.7 63 4.7 40.4
04:55 1023 30.21 853 25.19 11.3 52.4 63 4.5 40.1
05:00 1023 30.21 853 25.19 11.4 52.5 63 4.6 40.2
05:05 1023 30.21 853 25.19 11.5 52.7 61 4.2 39.6
05:10 1024 30.24 853 25.19 11.8 53.2 60 4.4 40
05:15 1024 30.24 853 25.19 11.6 52.9 62 4.7 40.4
05:20 1024 30.24 853 25.19 11.4 52.5 62 4.4 39.9
05:25 1024 30.24 853 25.19 11.2 52.1 63 4.5 40.2
05:30 1024 30.24 853 25.19 10.7 51.2 66 4.6 40.2
05:35 1024 30.24 853 25.19 10.3 50.6 66 4.3 39.8
05:40 1024 30.24 853 25.19 10.7 51.2 64 4.2 39.5
05:45 1024 30.24 853 25.19 10.9 51.6 64 4.3 39.7
05:50 1024 30.24 853 25.19 10.7 51.2 65 4.5 40.1
05:55 1024 30.24 853 25.19 10.5 50.8 66 4.4 39.8
06:00 1024 30.24 853 25.19 10.6 51.1 64 4.2 39.6
06:05 1024 30.24 853 25.19 10.8 51.4 63 4.1 39.4
06:10 1024 30.24 853 25.19 11.1 51.9 62 4.1 39.4
06:15 1024 30.24 853 25.19 11.3 52.4 61 4 39.2
06:20 1024 30.24 853 25.19 11.3 52.3 61 4.1 39.4
06:25 1024 30.24 853 25.19 11.2 52.1 61 4 39.2
06:30 1024 30.24 853 25.19 11.2 52.1 62 4.1 39.4
06:35 1024 30.24 853 25.19 11.1 52 62 4.1 39.4
06:40 1024 30.24 853 25.19 11.3 52.4 61 4.2 39.5
06:45 1024 30.24 853 25.19 11.6 52.8 59 3.9 38.9
06:50 1024 30.24 853 25.19 11.9 53.4 58 3.9 39
06:55 1024 30.24 853 25.19 12 53.6 58 4.1 39.4
07:00 1024 30.24 853 25.19 12.1 53.9 57 4 39.3
07:05 1024 30.24 853 25.19 12.4 54.3 57 4.2 39.6
07:10 1024 30.24 853 25.19 12.4 54.2 58 4.5 40.1
07:15 1024 30.24 853 25.19 12.4 54.3 58 4.4 39.8
07:20 1024 30.24 853 25.19 12.7 54.8 57 4.3 39.8
07:25 1024 30.24 853 25.19 13.1 55.6 57 4.8 40.6
07:30 1024 30.24 853 25.19 13.3 55.9 57 4.9 40.8
07:35 1024 30.24 853 25.19 13.5 56.2 58 5.3 41.5
07:40 1024 30.24 853 25.19 13.8 56.8 55 5.1 41.1
07:45 1024 30.24 853 25.19 14 57.2 56 5.5 41.9
07:50 1024 30.24 853 25.19 14.3 57.7 54 5.2 41.4
07:55 1024 30.24 853 25.19 15.2 59.3 54 5.9 42.6
08:00 1024 30.24 853 25.19 15.8 60.4 50 5.5 41.9
08:05 1024 30.24 853 25.19 16 60.7 48 4.9 40.9
08:10 1024 30.24 853 25.19 15.7 60.2 48 4.7 40.5
08:15 1024 30.24 854 25.22 15.8 60.4 48 4.8 40.6
08:20 1024 30.24 854 25.22 16.5 61.6 46 5 41.1
08:25 1024 30.24 854 25.22 17.2 63 44 4.8 40.7
08:30 1024 30.24 854 25.22 17.3 63.2 44 5.2 41.3
08:35 1024 30.24 854 25.22 18 64.4 42 5 41
08:40 1024 30.24 854 25.22 18.3 64.9 44 5.8 42.5
08:45 1024 30.24 854 25.22 18.3 64.9 42 5.3 41.5
08:50 1024 30.24 854 25.22 18.5 65.2 43 5.9 42.6
08:55 1024 30.24 854 25.22 18.3 65 38 3.9 38.9
09:00 1024 30.24 854 25.22 18.4 65.2 40 4.9 40.7
09:05 1024 30.24 854 25.22 19 66.2 34 2.9 37.3
09:10 1024 30.24 854 25.22 19.7 67.4 37 4.6 40.4
09:15 1024 30.24 854 25.22 19.7 67.5 36 4.4 40
09:20 1025 30.27 854 25.22 20.2 68.3 35 4.2 39.6
09:25 1025 30.27 854 25.22 20.3 68.5 37 5.3 41.6
09:30 1024 30.24 854 25.22 19.2 66.5 40 5.4 41.6
09:35 1025 30.27 854 25.22 19.9 67.8 36 4.4 39.9
09:40 1025 30.27 854 25.22 20.9 69.6 33 4.4 39.9
09:45 1025 30.27 854 25.22 20.3 68.5 37 5.4 41.6
09:50 1025 30.27 854 25.22 20.7 69.2 34 4.5 40.1
09:55 1025 30.27 854 25.22 21.4 70.5 34 5 40.9
10:00 1025 30.27 854 25.22 21 69.8 37 6.1 43
10:05 1025 30.27 854 25.22 20 68 38 5.6 42.1
10:10 1024 30.24 854 25.22 19.8 67.6 40 6 42.8
10:15 1024 30.24 854 25.22 20 68.1 38 5.3 41.6
10:20 1024 30.24 854 25.22 20.5 68.9 37 5.6 42
10:25 1024 30.24 854 25.22 20.4 68.6 36 4.9 40.7
10:30 1024 30.24 854 25.22 21.3 70.4 35 5.4 41.8
10:35 1024 30.24 854 25.22 21.7 71.1 33 5.1 41.1
10:40 1024 30.24 854 25.22 22.2 72 32 5.1 41.2
10:45 1024 30.24 854 25.22 21.6 70.9 32 4.6 40.2
10:50 1024 30.24 854 25.22 21.6 70.8 35 5.7 42.3
10:55 1024 30.24 853 25.19 21.8 71.2 33 5.1 41.1
11:00 1024 30.24 853 25.19 22.1 71.7 32 4.7 40.5
11:05 1024 30.24 853 25.19 22.4 72.4 32 5 40.9
11:10 1024 30.24 853 25.19 22 71.6 32 4.6 40.3
11:15 1024 30.24 853 25.19 21.5 70.7 31 3.8 38.8
11:20 1024 30.24 853 25.19 21.3 70.3 31 3.7 38.7
11:25 1024 30.24 853 25.19 21.3 70.4 30 3.4 38.1
11:30 1024 30.24 853 25.19 21.8 71.2 29 3.1 37.6
11:35 1024 30.24 853 25.19 22.8 73 29 3.9 39
11:40 1024 30.24 853 25.19 21.9 71.4 31 4.2 39.5
11:45 1024 30.24 853 25.19 22 71.6 28 3.1 37.6
11:50 1024 30.24 853 25.19 22.6 72.6 27 3 37.4
11:55 1024 30.24 853 25.19 22.1 71.7 29 3.4 38.1
12:00 1024 30.24 853 25.19 22.2 71.9 29 3.5 38.3
12:05 1024 30.24 853 25.19 23.7 74.6 27 3.7 38.6
12:10 1024 30.24 853 25.19 23.7 74.7 27 3.9 39
12:15 1024 30.24 853 25.19 23.9 75 26 3.7 38.6
12:20 1024 30.24 853 25.19 23.8 74.9 28 4.3 39.7
12:25 1024 30.24 853 25.19 23.5 74.2 27 3.5 38.3
12:30 1024 30.24 853 25.19 24.3 75.7 27 4.3 39.7
12:35 1024 30.24 853 25.19 24.5 76.1 26 4.1 39.4
12:40 1024 30.24 853 25.19 24.2 75.6 28 4.9 40.7
12:45 1024 30.24 853 25.19 24.1 75.3 27 4.3 39.7
12:50 1024 30.24 853 25.19 24.8 76.6 26 4.3 39.8
12:55 1023 30.21 853 25.19 24.5 76.1 27 4.5 40
13:00 1023 30.21 853 25.19 24.7 76.4 27 4.8 40.6
13:05 1023 30.21 853 25.19 24.3 75.7 27 4.5 40.2
13:10 1023 30.21 852 25.16 23.9 75 29 4.8 40.6
13:15 1023 30.21 852 25.16 24.1 75.3 27 4.2 39.5
13:20 1023 30.21 852 25.16 24 75.3 29 5 41
13:25 1023 30.21 852 25.16 24.1 75.4 28 4.7 40.5
13:30 1023 30.21 852 25.16 24.1 75.3 28 4.5 40
13:35 1023 30.21 852 25.16 24.7 76.5 28 5.1 41.1
13:40 1023 30.21 852 25.16 24.8 76.7 26 4.3 39.8
13:45 1023 30.21 852 25.16 25.8 78.5 24 3.9 39.1
13:50 1023 30.21 852 25.16 25.7 78.3 25 4.4 40
13:55 1023 30.21 852 25.16 26 78.8 25 4.8 40.7
14:00 1023 30.21 852 25.16 26.2 79.1 25 4.9 40.8
14:05 1023 30.21 852 25.16 26.3 79.3 24 4.4 39.9
14:10 1023 30.21 852 25.16 26.1 78.9 25 4.6 40.2
14:15 1023 30.21 852 25.16 26.5 79.7 25 5.1 41.2
14:20 1023 30.21 852 25.16 26.3 79.3 24 4.6 40.2
14:25 1023 30.21 852 25.16 26.6 79.8 24 4.9 40.8
14:30 1023 30.21 852 25.16 26.2 79.2 25 4.8 40.7
14:35 1023 30.21 852 25.16 26.7 80.1 24 5 41
14:40 1023 30.21 852 25.16 26.8 80.2 24 4.8 40.7
14:45 1023 30.21 852 25.16 26.7 80.1 24 4.9 40.9
14:50 1023 30.21 852 25.16 26.8 80.2 24 4.8 40.6
14:55 1023 30.21 852 25.16 27.4 81.2 24 5.2 41.4
15:00 1023 30.21 852 25.16 26.7 80 23 4.1 39.4
15:05 1022 30.18 852 25.16 26.8 80.2 24 4.6 40.3
15:10 1022 30.18 852 25.16 27.1 80.8 24 5.1 41.2
15:15 1022 30.18 852 25.16 27.2 80.9 24 5.1 41.2
15:20 1022 30.18 852 25.16 27.3 81.2 23 4.8 40.7
15:25 1022 30.18 852 25.16 26.6 79.8 26 5.8 42.4
15:30 1022 30.18 851 25.13 26.2 79.1 26 5.6 42
15:35 1022 30.18 851 25.13 26.6 79.9 25 5.3 41.5
15:40 1022 30.18 851 25.13 26.1 78.9 26 5.2 41.3
15:45 1022 30.18 851 25.13 26.6 79.9 24 5 40.9
15:50 1022 30.18 851 25.13 26.8 80.3 25 5.2 41.4
15:55 1022 30.18 851 25.13 26.2 79.2 25 4.7 40.5
16:00 1022 30.18 851 25.13 26.9 80.4 23 4.4 40
16:05 1022 30.18 851 25.13 27.6 81.6 22 4.1 39.4
16:10 1022 30.18 851 25.13 26.6 79.9 24 4.7 40.5
16:15 1022 30.18 851 25.13 26.5 79.7 23 4.1 39.4
16:20 1022 30.18 851 25.13 27.7 81.8 22 4.6 40.3
16:25 1022 30.18 851 25.13 27.9 82.2 22 4.2 39.6
16:30 1022 30.18 851 25.13 27.7 81.8 22 4.2 39.6
16:35 1022 30.18 851 25.13 27.3 81.1 23 4.4 40
16:40 1022 30.18 851 25.13 27 80.7 23 4.5 40.1
16:45 1022 30.18 851 25.13 26.7 80.1 24 4.5 40.1
16:50 1022 30.18 851 25.13 27.1 80.7 24 4.8 40.6
16:55 1022 30.18 851 25.13 26.6 79.9 23 4 39.2
17:00 1022 30.18 851 25.13 27.2 81 22 3.7 38.6
17:05 1022 30.18 851 25.13 28.1 82.5 21 3.7 38.7
17:10 1022 30.18 851 25.13 26.9 80.4 23 4.4 39.9
17:15 1022 30.18 851 25.13 26.6 79.9 22 3.2 37.7
17:20 1022 30.18 851 25.13 27.8 82 21 3.6 38.5
17:25 1022 30.18 851 25.13 28.1 82.6 21 3.7 38.7
17:30 1022 30.18 851 25.13 27.9 82.3 21 3.7 38.7
17:35 1022 30.18 851 25.13 28.3 82.9 22 4.8 40.7
17:40 1022 30.18 851 25.13 28.2 82.7 21 4 39.2
17:45 1022 30.18 851 25.13 28.5 83.2 21 4 39.3
17:50 1022 30.18 851 25.13 27.6 81.7 22 4.1 39.3
17:55 1022 30.18 851 25.13 28.2 82.7 21 4 39.2
18:00 1022 30.18 851 25.13 28.8 83.8 20 3.8 38.8
18:05 1021 30.15 851 25.13 28.1 82.6 21 4 39.1
18:10 1021 30.15 851 25.13 28.4 83.1 19 3.2 37.7
18:15 1021 30.15 851 25.13 28.5 83.3 22 5.1 41.1
18:20 1021 30.15 851 25.13 28.4 83.2 21 4.5 40.1
18:25 1021 30.15 850 25.1 28.1 82.6 21 4.1 39.4
18:30 1021 30.15 850 25.1 27.6 81.6 21 3.8 38.9
18:35 1021 30.15 850 25.1 28 82.5 20 3.5 38.2
18:40 1021 30.15 850 25.1 27.7 81.8 21 3.8 38.8
18:45 1021 30.15 850 25.1 27.7 81.9 21 3.4 38.1
18:50 1021 30.15 850 25.1 28.1 82.6 21 3.7 38.7
18:55 1021 30.15 850 25.1 28.1 82.6 20 3.6 38.4
19:00 1021 30.15 850 25.1 27.7 81.9 22 4.2 39.6
19:05 1021 30.15 850 25.1 27.7 81.9 21 3.7 38.6
19:10 1021 30.15 850 25.1 27.8 82 21 3.7 38.6
19:15 1021 30.15 850 25.1 27.2 81 21 3.5 38.2
19:20 1021 30.15 850 25.1 27 80.7 22 3.6 38.4
19:25 1021 30.15 850 25.1 26.9 80.4 22 3.6 38.5
19:30 1021 30.15 850 25.1 26.5 79.7 21 2.9 37.1
19:35 1021 30.15 850 25.1 26.6 79.9 22 3.1 37.6
19:40 1021 30.15 850 25.1 26.7 80 21 3.1 37.6
19:45 1021 30.15 850 25.1 26.8 80.2 22 3.3 38
19:50 1021 30.15 850 25.1 26.8 80.2 22 3.6 38.4
19:55 1021 30.15 850 25.1 26.4 79.6 22 3.5 38.3
20:00 1021 30.15 850 25.1 26.3 79.3 22 3.2 37.7
20:05 1021 30.15 850 25.1 26.2 79.2 22 3.1 37.5
20:10 1021 30.15 850 25.1 26.2 79.1 22 3.1 37.6
20:15 1021 30.15 850 25.1 26.2 79.2 23 3.7 38.6
20:20 1021 30.15 850 25.1 25.9 78.6 26 5.2 41.4
20:25 1021 30.15 850 25.1 25.6 78.1 26 5.1 41.2
20:30 1021 30.15 850 25.1 25.4 77.7 28 5.6 42.1
20:35 1021 30.15 850 25.1 25.1 77.2 29 6 42.9
20:40 1021 30.15 850 25.1 24.9 76.9 31 6.9 44.5
20:45 1021 30.15 850 25.1 24.8 76.6 30 6.1 43
20:50 1021 30.15 850 25.1 24.5 76.2 31 6.7 44.1
20:55 1021 30.15 850 25.1 24.2 75.5 32 6.9 44.4
21:00 1021 30.15 850 25.1 23.9 75 37 8.5 47.2
21:05 1021 30.15 850 25.1 23.5 74.3 41 9.5 49.1
21:10 1021 30.15 850 25.1 23 73.4 41 9.4 48.9
21:15 1021 30.15 850 25.1 22.5 72.6 43 9.4 48.9
21:20 1021 30.15 850 25.1 22.1 71.8 45 9.9 49.8
21:25 1021 30.15 850 25.1 21.7 71.1 42 8.3 46.9
21:30 1021 30.15 850 25.1 21.3 70.3 42 8.1 46.5
21:35 1021 30.15 850 25.1 20.9 69.5 43 7.9 46.2
21:40 1021 30.15 850 25.1 20.6 69.2 40 6.9 44.4
21:45 1021 30.15 850 25.1 20.5 69 39 6.4 43.6
21:50 1021 30.15 850 25.1 20.3 68.6 40 6.5 43.7
21:55 1021 30.15 850 25.1 20 68 42 6.8 44.3
22:00 1021 30.15 850 25.1 19.7 67.5 41 6.3 43.4
22:05 1021 30.15 851 25.13 19.4 66.9 44 7 44.6
22:10 1021 30.15 851 25.13 18.9 66.1 44 6.7 44
22:15 1021 30.15 851 25.13 18.7 65.7 45 6.6 43.8
22:20 1021 30.15 851 25.13 18.6 65.5 42 5.7 42.3
22:25 1021 30.15 851 25.13 18.7 65.7 42 5.5 41.9
22:30 1021 30.15 851 25.13 18.8 65.8 41 5.2 41.4
22:35 1021 30.15 851 25.13 18.7 65.6 41 5.3 41.5
22:40 1021 30.15 851 25.13 18.6 65.5 41 5.3 41.5
22:45 1021 30.15 851 25.13 18.6 65.5 42 5.7 42.2
22:50 1021 30.15 851 25.13 18.3 64.9 43 5.7 42.2
22:55 1021 30.15 851 25.13 18.3 64.9 41 4.9 40.9
23:00 1021 30.15 851 25.13 18.5 65.2 42 5.5 41.8
23:05 1022 30.18 851 25.13 18.2 64.7 43 5.6 42.2
23:10 1022 30.18 851 25.13 18.1 64.6 43 5.4 41.6
23:15 1022 30.18 851 25.13 18.2 64.8 43 5.6 42.1
23:20 1022 30.18 851 25.13 18.3 64.9 43 5.5 42
23:25 1022 30.18 851 25.13 18.3 64.9 43 5.5 42
23:30 1022 30.18 851 25.13 18.4 65.1 41 5.2 41.4
23:35 1022 30.18 851 25.13 18.5 65.3 40 4.9 40.8
23:40 1022 30.18 851 25.13 18.5 65.2 41 5 41.1
23:45 1022 30.18 851 25.13 18.3 64.9 42 5.2 41.3
23:50 1022 30.18 851 25.13 18.4 65.2 41 4.9 40.9
23:55 1022 30.18 851 25.13 18.4 65 40 4.7 40.5
24:00 1022 30.18 851 25.13 18.3 65 40 4.8 40.7